sensor_id;sensor_type;location;lat;lon;timestamp;P1;durP1;ratioP1;P2;durP2;ratioP2
10335;SDS011;5213;53.548;9.930;2023-02-28T00:00:21;1.80;;;1.55;;
10335;SDS011;5213;53.548;9.930;2023-02-28T00:02:47;2.92;;;1.60;;
10335;SDS011;5213;53.548;9.930;2023-02-28T00:05:15;2.75;;;1.80;;
10335;SDS011;5213;53.548;9.930;2023-02-28T00:07:41;2.67;;;2.10;;
10335;SDS011;5213;53.548;9.930;2023-02-28T00:10:08;3.53;;;1.90;;
10335;SDS011;5213;53.548;9.930;2023-02-28T00:12:35;1.95;;;1.75;;
10335;SDS011;5213;53.548;9.930;2023-02-28T00:15:01;3.80;;;1.92;;
10335;SDS011;5213;53.548;9.930;2023-02-28T00:17:27;2.47;;;1.85;;
10335;SDS011;5213;53.548;9.930;2023-02-28T00:19:53;3.88;;;2.25;;
10335;SDS011;5213;53.548;9.930;2023-02-28T00:22:20;3.70;;;2.10;;
10335;SDS011;5213;53.548;9.930;2023-02-28T00:24:46;2.90;;;2.10;;
10335;SDS011;5213;53.548;9.930;2023-02-28T00:27:13;3.38;;;2.03;;
10335;SDS011;5213;53.548;9.930;2023-02-28T00:29:39;3.15;;;1.98;;
10335;SDS011;5213;53.548;9.930;2023-02-28T00:32:06;3.30;;;2.30;;
10335;SDS011;5213;53.548;9.930;2023-02-28T00:34:32;2.20;;;2.00;;
10335;SDS011;5213;53.548;9.930;2023-02-28T00:37:06;2.67;;;2.25;;
10335;SDS011;5213;53.548;9.930;2023-02-28T00:39:36;3.13;;;2.30;;
10335;SDS011;5213;53.548;9.930;2023-02-28T00:42:02;2.88;;;2.50;;
10335;SDS011;5213;53.548;9.930;2023-02-28T00:44:29;2.75;;;2.15;;
10335;SDS011;5213;53.548;9.930;2023-02-28T00:46:55;4.38;;;2.47;;
10335;SDS011;5213;53.548;9.930;2023-02-28T00:49:22;3.92;;;2.60;;
10335;SDS011;5213;53.548;9.930;2023-02-28T00:51:48;2.50;;;2.30;;
10335;SDS011;5213;53.548;9.930;2023-02-28T00:54:14;2.72;;;2.10;;
10335;SDS011;5213;53.548;9.930;2023-02-28T00:56:41;2.60;;;2.38;;
10335;SDS011;5213;53.548;9.930;2023-02-28T00:59:07;3.83;;;2.38;;
10335;SDS011;5213;53.548;9.930;2023-02-28T01:01:33;4.93;;;2.53;;
10335;SDS011;5213;53.548;9.930;2023-02-28T01:03:59;3.38;;;2.28;;
10335;SDS011;5213;53.548;9.930;2023-02-28T01:06:25;5.15;;;2.58;;
10335;SDS011;5213;53.548;9.930;2023-02-28T01:08:51;3.70;;;2.70;;
10335;SDS011;5213;53.548;9.930;2023-02-28T01:11:17;4.03;;;2.53;;
10335;SDS011;5213;53.548;9.930;2023-02-28T01:13:44;2.53;;;2.10;;
10335;SDS011;5213;53.548;9.930;2023-02-28T01:16:10;5.30;;;2.58;;
10335;SDS011;5213;53.548;9.930;2023-02-28T01:18:36;2.70;;;2.42;;
10335;SDS011;5213;53.548;9.930;2023-02-28T01:21:03;3.20;;;2.15;;
10335;SDS011;5213;53.548;9.930;2023-02-28T01:23:29;2.65;;;2.38;;
10335;SDS011;5213;53.548;9.930;2023-02-28T01:25:55;3.20;;;2.50;;
10335;SDS011;5213;53.548;9.930;2023-02-28T01:28:21;3.63;;;2.17;;
10335;SDS011;5213;53.548;9.930;2023-02-28T01:30:51;3.75;;;2.42;;
10335;SDS011;5213;53.548;9.930;2023-02-28T01:33:17;3.40;;;2.67;;
10335;SDS011;5213;53.548;9.930;2023-02-28T01:35:43;2.50;;;2.28;;
10335;SDS011;5213;53.548;9.930;2023-02-28T01:38:09;3.40;;;2.38;;
10335;SDS011;5213;53.548;9.930;2023-02-28T01:40:35;3.88;;;2.40;;
10335;SDS011;5213;53.548;9.930;2023-02-28T01:43:01;2.90;;;2.60;;
10335;SDS011;5213;53.548;9.930;2023-02-28T01:45:28;4.95;;;2.45;;
10335;SDS011;5213;53.548;9.930;2023-02-28T01:47:55;2.60;;;2.40;;
10335;SDS011;5213;53.548;9.930;2023-02-28T01:50:25;2.90;;;2.65;;
10335;SDS011;5213;53.548;9.930;2023-02-28T01:52:53;3.50;;;2.50;;
10335;SDS011;5213;53.548;9.930;2023-02-28T01:55:20;3.03;;;2.72;;
10335;SDS011;5213;53.548;9.930;2023-02-28T01:57:52;3.25;;;2.95;;
10335;SDS011;5213;53.548;9.930;2023-02-28T02:00:21;4.88;;;3.17;;
10335;SDS011;5213;53.548;9.930;2023-02-28T02:02:51;4.18;;;3.40;;
10335;SDS011;5213;53.548;9.930;2023-02-28T02:05:19;3.67;;;3.20;;
10335;SDS011;5213;53.548;9.930;2023-02-28T02:07:46;5.07;;;3.20;;
10335;SDS011;5213;53.548;9.930;2023-02-28T02:12:45;4.15;;;2.90;;
10335;SDS011;5213;53.548;9.930;2023-02-28T02:15:17;5.53;;;3.53;;
10335;SDS011;5213;53.548;9.930;2023-02-28T02:17:45;6.20;;;3.75;;
10335;SDS011;5213;53.548;9.930;2023-02-28T02:30:42;5.00;;;2.95;;
10335;SDS011;5213;53.548;9.930;2023-02-28T02:35:43;6.85;;;3.63;;
10335;SDS011;5213;53.548;9.930;2023-02-28T02:40:43;3.90;;;2.95;;
10335;SDS011;5213;53.548;9.930;2023-02-28T02:43:19;4.35;;;3.03;;
10335;SDS011;5213;53.548;9.930;2023-02-28T02:45:59;5.28;;;3.20;;
10335;SDS011;5213;53.548;9.930;2023-02-28T02:48:29;3.78;;;3.42;;
10335;SDS011;5213;53.548;9.930;2023-02-28T02:50:57;5.20;;;2.97;;
10335;SDS011;5213;53.548;9.930;2023-02-28T02:53:26;4.32;;;2.80;;
10335;SDS011;5213;53.548;9.930;2023-02-28T02:55:53;3.75;;;3.15;;
10335;SDS011;5213;53.548;9.930;2023-02-28T02:58:21;5.47;;;2.90;;
10335;SDS011;5213;53.548;9.930;2023-02-28T03:00:48;5.32;;;3.13;;
10335;SDS011;5213;53.548;9.930;2023-02-28T03:03:16;4.30;;;3.30;;
10335;SDS011;5213;53.548;9.930;2023-02-28T03:05:46;4.70;;;3.50;;
10335;SDS011;5213;53.548;9.930;2023-02-28T03:08:12;4.57;;;3.28;;
10335;SDS011;5213;53.548;9.930;2023-02-28T03:10:40;5.60;;;3.25;;
10335;SDS011;5213;53.548;9.930;2023-02-28T03:13:11;5.28;;;3.50;;
10335;SDS011;5213;53.548;9.930;2023-02-28T03:16:16;4.80;;;3.53;;
10335;SDS011;5213;53.548;9.930;2023-02-28T03:21:14;5.15;;;3.80;;
10335;SDS011;5213;53.548;9.930;2023-02-28T03:23:46;4.68;;;3.90;;
10335;SDS011;5213;53.548;9.930;2023-02-28T03:26:17;9.02;;;4.03;;
10335;SDS011;5213;53.548;9.930;2023-02-28T03:29:05;6.47;;;4.25;;
10335;SDS011;5213;53.548;9.930;2023-02-28T03:31:41;5.82;;;3.90;;
10335;SDS011;5213;53.548;9.930;2023-02-28T03:34:26;5.68;;;3.85;;
10335;SDS011;5213;53.548;9.930;2023-02-28T03:36:55;4.72;;;4.22;;
10335;SDS011;5213;53.548;9.930;2023-02-28T03:39:24;5.13;;;3.60;;
10335;SDS011;5213;53.548;9.930;2023-02-28T03:41:54;6.47;;;4.55;;
10335;SDS011;5213;53.548;9.930;2023-02-28T03:44:24;5.97;;;3.75;;
10335;SDS011;5213;53.548;9.930;2023-02-28T03:49:30;7.72;;;4.50;;
10335;SDS011;5213;53.548;9.930;2023-02-28T03:51:58;7.07;;;4.70;;
10335;SDS011;5213;53.548;9.930;2023-02-28T03:54:27;5.25;;;4.75;;
10335;SDS011;5213;53.548;9.930;2023-02-28T03:56:57;8.52;;;4.40;;
10335;SDS011;5213;53.548;9.930;2023-02-28T03:59:32;7.65;;;4.70;;
10335;SDS011;5213;53.548;9.930;2023-02-28T04:02:00;6.97;;;4.95;;
10335;SDS011;5213;53.548;9.930;2023-02-28T04:04:26;4.82;;;4.25;;
10335;SDS011;5213;53.548;9.930;2023-02-28T04:06:52;8.02;;;4.70;;
10335;SDS011;5213;53.548;9.930;2023-02-28T04:09:18;7.60;;;4.55;;
10335;SDS011;5213;53.548;9.930;2023-02-28T04:11:51;6.68;;;5.25;;
10335;SDS011;5213;53.548;9.930;2023-02-28T04:14:18;7.20;;;5.07;;
10335;SDS011;5213;53.548;9.930;2023-02-28T04:16:44;5.78;;;4.80;;
10335;SDS011;5213;53.548;9.930;2023-02-28T04:19:10;7.75;;;5.10;;
10335;SDS011;5213;53.548;9.930;2023-02-28T04:21:44;7.45;;;5.65;;
10335;SDS011;5213;53.548;9.930;2023-02-28T04:24:11;7.05;;;5.50;;
10335;SDS011;5213;53.548;9.930;2023-02-28T04:26:42;7.03;;;5.05;;
10335;SDS011;5213;53.548;9.930;2023-02-28T04:29:09;9.48;;;5.60;;
10335;SDS011;5213;53.548;9.930;2023-02-28T04:31:35;8.70;;;6.10;;
10335;SDS011;5213;53.548;9.930;2023-02-28T04:34:01;6.57;;;5.20;;
10335;SDS011;5213;53.548;9.930;2023-02-28T04:36:27;9.30;;;5.70;;
10335;SDS011;5213;53.548;9.930;2023-02-28T04:38:53;7.47;;;5.32;;
10335;SDS011;5213;53.548;9.930;2023-02-28T04:41:20;8.70;;;6.25;;
10335;SDS011;5213;53.548;9.930;2023-02-28T04:43:46;7.47;;;5.95;;
10335;SDS011;5213;53.548;9.930;2023-02-28T04:46:12;8.65;;;6.03;;
10335;SDS011;5213;53.548;9.930;2023-02-28T04:48:39;7.20;;;5.85;;
10335;SDS011;5213;53.548;9.930;2023-02-28T04:51:05;6.72;;;5.35;;
10335;SDS011;5213;53.548;9.930;2023-02-28T04:53:32;7.03;;;5.60;;
10335;SDS011;5213;53.548;9.930;2023-02-28T04:55:58;7.43;;;5.43;;
10335;SDS011;5213;53.548;9.930;2023-02-28T04:58:24;7.97;;;5.75;;
10335;SDS011;5213;53.548;9.930;2023-02-28T05:00:51;6.68;;;5.60;;
10335;SDS011;5213;53.548;9.930;2023-02-28T05:03:17;6.10;;;5.50;;
10335;SDS011;5213;53.548;9.930;2023-02-28T05:05:43;6.85;;;5.70;;
10335;SDS011;5213;53.548;9.930;2023-02-28T05:08:09;8.52;;;5.70;;
10335;SDS011;5213;53.548;9.930;2023-02-28T05:10:36;9.93;;;5.88;;
10335;SDS011;5213;53.548;9.930;2023-02-28T05:13:02;6.45;;;4.97;;
10335;SDS011;5213;53.548;9.930;2023-02-28T05:15:28;9.40;;;6.20;;
10335;SDS011;5213;53.548;9.930;2023-02-28T05:17:54;7.75;;;5.70;;
10335;SDS011;5213;53.548;9.930;2023-02-28T05:20:20;10.02;;;5.80;;
10335;SDS011;5213;53.548;9.930;2023-02-28T05:22:46;8.32;;;6.10;;
10335;SDS011;5213;53.548;9.930;2023-02-28T05:25:17;5.90;;;5.20;;
10335;SDS011;5213;53.548;9.930;2023-02-28T05:27:43;7.45;;;5.60;;
10335;SDS011;5213;53.548;9.930;2023-02-28T05:30:09;5.72;;;5.07;;
10335;SDS011;5213;53.548;9.930;2023-02-28T05:32:37;6.22;;;5.57;;
10335;SDS011;5213;53.548;9.930;2023-02-28T05:35:04;5.95;;;5.35;;
10335;SDS011;5213;53.548;9.930;2023-02-28T05:37:30;8.38;;;5.85;;
10335;SDS011;5213;53.548;9.930;2023-02-28T05:39:56;7.95;;;6.00;;
10335;SDS011;5213;53.548;9.930;2023-02-28T05:42:22;8.20;;;6.20;;
10335;SDS011;5213;53.548;9.930;2023-02-28T05:44:48;6.72;;;6.03;;
10335;SDS011;5213;53.548;9.930;2023-02-28T05:47:14;8.65;;;5.82;;
10335;SDS011;5213;53.548;9.930;2023-02-28T05:49:40;6.65;;;5.95;;
10335;SDS011;5213;53.548;9.930;2023-02-28T05:52:07;6.95;;;6.13;;
10335;SDS011;5213;53.548;9.930;2023-02-28T05:54:33;7.70;;;5.70;;
10335;SDS011;5213;53.548;9.930;2023-02-28T05:56:59;8.55;;;6.15;;
10335;SDS011;5213;53.548;9.930;2023-02-28T05:59:25;7.05;;;5.68;;
10335;SDS011;5213;53.548;9.930;2023-02-28T06:01:51;8.85;;;6.20;;
10335;SDS011;5213;53.548;9.930;2023-02-28T06:04:18;6.93;;;5.72;;
10335;SDS011;5213;53.548;9.930;2023-02-28T06:06:45;9.93;;;5.78;;
10335;SDS011;5213;53.548;9.930;2023-02-28T06:09:11;6.30;;;5.32;;
10335;SDS011;5213;53.548;9.930;2023-02-28T06:11:38;9.73;;;6.68;;
10335;SDS011;5213;53.548;9.930;2023-02-28T06:14:04;7.82;;;5.93;;
10335;SDS011;5213;53.548;9.930;2023-02-28T06:16:31;9.35;;;5.50;;
10335;SDS011;5213;53.548;9.930;2023-02-28T06:18:58;7.30;;;5.90;;
10335;SDS011;5213;53.548;9.930;2023-02-28T06:21:24;10.95;;;6.25;;
10335;SDS011;5213;53.548;9.930;2023-02-28T06:23:52;10.77;;;6.72;;
10335;SDS011;5213;53.548;9.930;2023-02-28T06:26:18;9.30;;;6.65;;
10335;SDS011;5213;53.548;9.930;2023-02-28T06:28:44;13.43;;;8.35;;
10335;SDS011;5213;53.548;9.930;2023-02-28T06:31:11;14.30;;;8.50;;
10335;SDS011;5213;53.548;9.930;2023-02-28T06:33:38;11.85;;;7.15;;
10335;SDS011;5213;53.548;9.930;2023-02-28T06:36:04;14.73;;;8.60;;
10335;SDS011;5213;53.548;9.930;2023-02-28T06:38:30;12.20;;;8.55;;
10335;SDS011;5213;53.548;9.930;2023-02-28T06:40:57;12.20;;;7.30;;
10335;SDS011;5213;53.548;9.930;2023-02-28T06:43:24;12.15;;;7.80;;
10335;SDS011;5213;53.548;9.930;2023-02-28T06:45:50;12.27;;;7.35;;
10335;SDS011;5213;53.548;9.930;2023-02-28T06:48:19;9.45;;;7.00;;
10335;SDS011;5213;53.548;9.930;2023-02-28T06:50:45;10.75;;;7.55;;
10335;SDS011;5213;53.548;9.930;2023-02-28T06:53:11;10.80;;;7.90;;
10335;SDS011;5213;53.548;9.930;2023-02-28T06:55:38;9.65;;;7.38;;
10335;SDS011;5213;53.548;9.930;2023-02-28T06:58:04;8.75;;;6.47;;
10335;SDS011;5213;53.548;9.930;2023-02-28T07:00:42;8.35;;;6.55;;
10335;SDS011;5213;53.548;9.930;2023-02-28T07:03:09;11.93;;;6.68;;
10335;SDS011;5213;53.548;9.930;2023-02-28T07:05:36;9.35;;;6.53;;
10335;SDS011;5213;53.548;9.930;2023-02-28T07:08:02;8.30;;;5.97;;
10335;SDS011;5213;53.548;9.930;2023-02-28T07:10:28;7.65;;;6.32;;
10335;SDS011;5213;53.548;9.930;2023-02-28T07:12:55;10.50;;;6.90;;
10335;SDS011;5213;53.548;9.930;2023-02-28T07:15:21;8.95;;;6.68;;
10335;SDS011;5213;53.548;9.930;2023-02-28T07:17:47;14.55;;;7.05;;
10335;SDS011;5213;53.548;9.930;2023-02-28T07:20:13;8.70;;;6.40;;
10335;SDS011;5213;53.548;9.930;2023-02-28T07:22:39;10.38;;;7.53;;
10335;SDS011;5213;53.548;9.930;2023-02-28T07:25:05;15.65;;;7.82;;
10335;SDS011;5213;53.548;9.930;2023-02-28T07:27:31;18.13;;;8.95;;
10335;SDS011;5213;53.548;9.930;2023-02-28T07:29:57;13.88;;;8.07;;
10335;SDS011;5213;53.548;9.930;2023-02-28T07:32:26;15.60;;;8.48;;
10335;SDS011;5213;53.548;9.930;2023-02-28T07:34:52;11.70;;;7.68;;
10335;SDS011;5213;53.548;9.930;2023-02-28T07:37:18;8.57;;;6.65;;
10335;SDS011;5213;53.548;9.930;2023-02-28T07:39:44;11.00;;;7.00;;
10335;SDS011;5213;53.548;9.930;2023-02-28T07:42:10;12.38;;;6.47;;
10335;SDS011;5213;53.548;9.930;2023-02-28T07:44:38;10.90;;;7.28;;
10335;SDS011;5213;53.548;9.930;2023-02-28T07:47:08;14.65;;;7.03;;
10335;SDS011;5213;53.548;9.930;2023-02-28T07:49:35;10.50;;;7.13;;
10335;SDS011;5213;53.548;9.930;2023-02-28T07:52:02;11.27;;;6.90;;
10335;SDS011;5213;53.548;9.930;2023-02-28T07:54:28;11.73;;;7.03;;
10335;SDS011;5213;53.548;9.930;2023-02-28T07:56:55;10.02;;;6.50;;
10335;SDS011;5213;53.548;9.930;2023-02-28T07:59:20;9.63;;;7.07;;
10335;SDS011;5213;53.548;9.930;2023-02-28T08:01:46;8.63;;;6.03;;
10335;SDS011;5213;53.548;9.930;2023-02-28T08:04:15;6.85;;;5.47;;
10335;SDS011;5213;53.548;9.930;2023-02-28T08:06:41;8.98;;;5.80;;
10335;SDS011;5213;53.548;9.930;2023-02-28T08:09:07;9.32;;;5.18;;
10335;SDS011;5213;53.548;9.930;2023-02-28T08:11:33;9.55;;;5.85;;
10335;SDS011;5213;53.548;9.930;2023-02-28T08:13:59;12.05;;;6.03;;
10335;SDS011;5213;53.548;9.930;2023-02-28T08:16:25;10.60;;;5.20;;
10335;SDS011;5213;53.548;9.930;2023-02-28T08:18:51;7.82;;;4.85;;
10335;SDS011;5213;53.548;9.930;2023-02-28T08:21:18;11.90;;;5.15;;
10335;SDS011;5213;53.548;9.930;2023-02-28T08:23:45;11.80;;;4.65;;
10335;SDS011;5213;53.548;9.930;2023-02-28T08:26:12;6.35;;;4.30;;
10335;SDS011;5213;53.548;9.930;2023-02-28T08:28:38;4.72;;;3.58;;
10335;SDS011;5213;53.548;9.930;2023-02-28T08:31:12;3.33;;;3.00;;
10335;SDS011;5213;53.548;9.930;2023-02-28T08:33:38;4.40;;;2.65;;
10335;SDS011;5213;53.548;9.930;2023-02-28T08:36:05;2.38;;;2.05;;
10335;SDS011;5213;53.548;9.930;2023-02-28T08:38:31;2.88;;;2.65;;
10335;SDS011;5213;53.548;9.930;2023-02-28T08:40:58;3.97;;;2.60;;
10335;SDS011;5213;53.548;9.930;2023-02-28T08:43:25;3.17;;;2.63;;
10335;SDS011;5213;53.548;9.930;2023-02-28T08:45:51;2.47;;;2.20;;
10335;SDS011;5213;53.548;9.930;2023-02-28T08:48:17;2.45;;;2.25;;
10335;SDS011;5213;53.548;9.930;2023-02-28T08:50:44;2.83;;;2.45;;
10335;SDS011;5213;53.548;9.930;2023-02-28T08:53:10;6.32;;;2.80;;
10335;SDS011;5213;53.548;9.930;2023-02-28T08:55:36;3.22;;;2.50;;
10335;SDS011;5213;53.548;9.930;2023-02-28T08:58:01;3.92;;;2.50;;
10335;SDS011;5213;53.548;9.930;2023-02-28T09:00:27;3.28;;;2.45;;
10335;SDS011;5213;53.548;9.930;2023-02-28T09:02:53;4.45;;;2.88;;
10335;SDS011;5213;53.548;9.930;2023-02-28T09:05:19;3.10;;;2.60;;
10335;SDS011;5213;53.548;9.930;2023-02-28T09:07:45;4.65;;;2.90;;
10335;SDS011;5213;53.548;9.930;2023-02-28T09:10:11;3.92;;;3.15;;
10335;SDS011;5213;53.548;9.930;2023-02-28T09:12:37;3.30;;;2.60;;
10335;SDS011;5213;53.548;9.930;2023-02-28T09:15:04;4.05;;;2.83;;
10335;SDS011;5213;53.548;9.930;2023-02-28T09:17:30;4.22;;;2.70;;
10335;SDS011;5213;53.548;9.930;2023-02-28T09:19:56;2.50;;;2.00;;
10335;SDS011;5213;53.548;9.930;2023-02-28T09:22:22;4.53;;;1.50;;
10335;SDS011;5213;53.548;9.930;2023-02-28T09:24:48;3.90;;;2.00;;
10335;SDS011;5213;53.548;9.930;2023-02-28T09:27:14;2.90;;;2.30;;
10335;SDS011;5213;53.548;9.930;2023-02-28T09:29:41;1.95;;;1.80;;
10335;SDS011;5213;53.548;9.930;2023-02-28T09:32:07;2.25;;;1.67;;
10335;SDS011;5213;53.548;9.930;2023-02-28T09:34:33;3.40;;;1.88;;
10335;SDS011;5213;53.548;9.930;2023-02-28T09:37:01;1.50;;;1.40;;
10335;SDS011;5213;53.548;9.930;2023-02-28T09:39:27;1.60;;;1.50;;
10335;SDS011;5213;53.548;9.930;2023-02-28T09:41:54;1.67;;;1.30;;
10335;SDS011;5213;53.548;9.930;2023-02-28T09:44:31;1.25;;;1.15;;
10335;SDS011;5213;53.548;9.930;2023-02-28T09:47:05;1.05;;;0.95;;
10335;SDS011;5213;53.548;9.930;2023-02-28T09:49:36;1.30;;;1.20;;
10335;SDS011;5213;53.548;9.930;2023-02-28T09:52:13;1.45;;;1.35;;
10335;SDS011;5213;53.548;9.930;2023-02-28T09:54:41;1.30;;;1.20;;
10335;SDS011;5213;53.548;9.930;2023-02-28T09:57:10;1.52;;;1.42;;
10335;SDS011;5213;53.548;9.930;2023-02-28T09:59:44;1.20;;;1.20;;
10335;SDS011;5213;53.548;9.930;2023-02-28T10:05:06;1.38;;;1.05;;
10335;SDS011;5213;53.548;9.930;2023-02-28T10:08:22;1.17;;;0.93;;
10335;SDS011;5213;53.548;9.930;2023-02-28T10:12:53;1.13;;;1.13;;
10335;SDS011;5213;53.548;9.930;2023-02-28T10:15:21;1.05;;;0.93;;
10335;SDS011;5213;53.548;9.930;2023-02-28T10:17:48;0.90;;;0.90;;
10335;SDS011;5213;53.548;9.930;2023-02-28T10:20:19;1.13;;;1.00;;
10335;SDS011;5213;53.548;9.930;2023-02-28T10:25:22;1.10;;;1.00;;
10335;SDS011;5213;53.548;9.930;2023-02-28T10:27:49;1.98;;;1.50;;
10335;SDS011;5213;53.548;9.930;2023-02-28T10:30:15;1.95;;;1.20;;
10335;SDS011;5213;53.548;9.930;2023-02-28T10:32:44;1.38;;;1.10;;
10335;SDS011;5213;53.548;9.930;2023-02-28T10:35:17;1.67;;;1.50;;
10335;SDS011;5213;53.548;9.930;2023-02-28T10:37:47;1.60;;;1.50;;
10335;SDS011;5213;53.548;9.930;2023-02-28T10:42:42;2.50;;;1.80;;
10335;SDS011;5213;53.548;9.930;2023-02-28T10:45:20;2.03;;;1.73;;
10335;SDS011;5213;53.548;9.930;2023-02-28T10:47:56;2.15;;;1.77;;
10335;SDS011;5213;53.548;9.930;2023-02-28T10:55:33;2.10;;;1.90;;
10335;SDS011;5213;53.548;9.930;2023-02-28T10:57:59;1.98;;;1.75;;
10335;SDS011;5213;53.548;9.930;2023-02-28T11:00:25;1.90;;;1.80;;
10335;SDS011;5213;53.548;9.930;2023-02-28T11:02:57;2.00;;;1.90;;
10335;SDS011;5213;53.548;9.930;2023-02-28T11:05:24;2.00;;;1.80;;
10335;SDS011;5213;53.548;9.930;2023-02-28T11:07:51;5.05;;;1.95;;
10335;SDS011;5213;53.548;9.930;2023-02-28T11:10:19;2.88;;;1.85;;
10335;SDS011;5213;53.548;9.930;2023-02-28T11:12:46;1.80;;;1.60;;
10335;SDS011;5213;53.548;9.930;2023-02-28T11:15:21;3.17;;;1.75;;
10335;SDS011;5213;53.548;9.930;2023-02-28T11:20:30;2.88;;;1.80;;
10335;SDS011;5213;53.548;9.930;2023-02-28T11:22:58;2.00;;;1.80;;
10335;SDS011;5213;53.548;9.930;2023-02-28T11:25:30;4.47;;;1.90;;
10335;SDS011;5213;53.548;9.930;2023-02-28T11:27:57;2.33;;;1.85;;
10335;SDS011;5213;53.548;9.930;2023-02-28T11:30:36;2.97;;;2.03;;
10335;SDS011;5213;53.548;9.930;2023-02-28T11:33:21;1.83;;;1.73;;
10335;SDS011;5213;53.548;9.930;2023-02-28T11:35:48;3.17;;;1.77;;
10335;SDS011;5213;53.548;9.930;2023-02-28T11:38:15;3.88;;;1.98;;
10335;SDS011;5213;53.548;9.930;2023-02-28T11:45:58;2.08;;;1.85;;
10335;SDS011;5213;53.548;9.930;2023-02-28T11:51:19;2.13;;;1.92;;
10335;SDS011;5213;53.548;9.930;2023-02-28T11:56:33;2.92;;;1.85;;
10335;SDS011;5213;53.548;9.930;2023-02-28T12:07:03;2.58;;;2.20;;
10335;SDS011;5213;53.548;9.930;2023-02-28T12:12:28;2.33;;;1.83;;
10335;SDS011;5213;53.548;9.930;2023-02-28T12:15:02;2.03;;;1.83;;
10335;SDS011;5213;53.548;9.930;2023-02-28T12:25:43;3.45;;;2.40;;
10335;SDS011;5213;53.548;9.930;2023-02-28T12:27:41;3.83;;;2.35;;
10335;SDS011;5213;53.548;9.930;2023-02-28T12:33:05;3.72;;;2.22;;
10335;SDS011;5213;53.548;9.930;2023-02-28T12:35:35;3.63;;;2.22;;
10335;SDS011;5213;53.548;9.930;2023-02-28T12:38:08;4.47;;;2.20;;
10335;SDS011;5213;53.548;9.930;2023-02-28T12:40:47;4.13;;;2.40;;
10335;SDS011;5213;53.548;9.930;2023-02-28T12:43:14;4.25;;;2.30;;
10335;SDS011;5213;53.548;9.930;2023-02-28T12:45:53;4.90;;;2.55;;
10335;SDS011;5213;53.548;9.930;2023-02-28T12:48:27;2.75;;;2.35;;
10335;SDS011;5213;53.548;9.930;2023-02-28T12:50:55;2.20;;;2.10;;
10335;SDS011;5213;53.548;9.930;2023-02-28T12:56:02;3.35;;;2.22;;
10335;SDS011;5213;53.548;9.930;2023-02-28T12:58:34;2.72;;;2.13;;
10335;SDS011;5213;53.548;9.930;2023-02-28T13:04:04;3.20;;;2.20;;
10335;SDS011;5213;53.548;9.930;2023-02-28T13:06:39;3.20;;;2.90;;
10335;SDS011;5213;53.548;9.930;2023-02-28T13:09:11;5.45;;;2.28;;
10335;SDS011;5213;53.548;9.930;2023-02-28T13:14:05;2.88;;;2.17;;
10335;SDS011;5213;53.548;9.930;2023-02-28T13:19:17;3.80;;;2.05;;
10335;SDS011;5213;53.548;9.930;2023-02-28T13:21:45;2.45;;;1.95;;
10335;SDS011;5213;53.548;9.930;2023-02-28T13:24:35;2.40;;;1.98;;
10335;SDS011;5213;53.548;9.930;2023-02-28T13:29:32;5.03;;;1.67;;
10335;SDS011;5213;53.548;9.930;2023-02-28T13:34:32;6.35;;;1.95;;
10335;SDS011;5213;53.548;9.930;2023-02-28T13:47:27;3.95;;;2.53;;
10335;SDS011;5213;53.548;9.930;2023-02-28T13:50:13;3.55;;;2.08;;
10335;SDS011;5213;53.548;9.930;2023-02-28T14:05:40;3.08;;;2.20;;
10335;SDS011;5213;53.548;9.930;2023-02-28T14:08:17;3.45;;;2.40;;
10335;SDS011;5213;53.548;9.930;2023-02-28T14:10:46;3.92;;;1.85;;
10335;SDS011;5213;53.548;9.930;2023-02-28T14:16:02;3.30;;;2.33;;
10335;SDS011;5213;53.548;9.930;2023-02-28T14:18:36;6.60;;;1.95;;
10335;SDS011;5213;53.548;9.930;2023-02-28T14:21:22;3.00;;;2.20;;
10335;SDS011;5213;53.548;9.930;2023-02-28T14:31:39;4.78;;;2.20;;
10335;SDS011;5213;53.548;9.930;2023-02-28T14:34:17;2.45;;;2.25;;
10335;SDS011;5213;53.548;9.930;2023-02-28T14:36:51;2.10;;;1.90;;
10335;SDS011;5213;53.548;9.930;2023-02-28T14:39:20;3.80;;;2.50;;
10335;SDS011;5213;53.548;9.930;2023-02-28T14:41:47;5.50;;;2.08;;
10335;SDS011;5213;53.548;9.930;2023-02-28T14:44:15;2.75;;;2.25;;
10335;SDS011;5213;53.548;9.930;2023-02-28T14:46:42;3.15;;;2.00;;
10335;SDS011;5213;53.548;9.930;2023-02-28T14:49:13;7.90;;;2.38;;
10335;SDS011;5213;53.548;9.930;2023-02-28T14:51:40;3.85;;;2.38;;
10335;SDS011;5213;53.548;9.930;2023-02-28T14:54:12;2.63;;;2.38;;
10335;SDS011;5213;53.548;9.930;2023-02-28T14:56:38;2.75;;;2.03;;
10335;SDS011;5213;53.548;9.930;2023-02-28T14:59:17;4.70;;;2.55;;
10335;SDS011;5213;53.548;9.930;2023-02-28T15:01:47;2.30;;;2.20;;
10335;SDS011;5213;53.548;9.930;2023-02-28T15:04:18;7.20;;;2.50;;
10335;SDS011;5213;53.548;9.930;2023-02-28T15:06:46;4.45;;;3.15;;
10335;SDS011;5213;53.548;9.930;2023-02-28T15:09:32;4.78;;;2.47;;
10335;SDS011;5213;53.548;9.930;2023-02-28T15:11:58;3.47;;;2.40;;
10335;SDS011;5213;53.548;9.930;2023-02-28T15:14:24;5.22;;;2.38;;
10335;SDS011;5213;53.548;9.930;2023-02-28T15:16:55;3.55;;;2.40;;
10335;SDS011;5213;53.548;9.930;2023-02-28T15:21:49;2.65;;;2.20;;
10335;SDS011;5213;53.548;9.930;2023-02-28T15:26:56;4.82;;;2.75;;
10335;SDS011;5213;53.548;9.930;2023-02-28T15:29:23;8.40;;;2.33;;
10335;SDS011;5213;53.548;9.930;2023-02-28T15:31:53;2.45;;;2.25;;
10335;SDS011;5213;53.548;9.930;2023-02-28T15:36:52;7.70;;;2.53;;
10335;SDS011;5213;53.548;9.930;2023-02-28T15:39:25;4.97;;;2.60;;
10335;SDS011;5213;53.548;9.930;2023-02-28T15:42:09;5.70;;;2.70;;
10335;SDS011;5213;53.548;9.930;2023-02-28T15:44:35;4.30;;;2.20;;
10335;SDS011;5213;53.548;9.930;2023-02-28T15:47:03;5.85;;;2.25;;
10335;SDS011;5213;53.548;9.930;2023-02-28T15:49:31;3.03;;;2.15;;
10335;SDS011;5213;53.548;9.930;2023-02-28T15:51:59;4.20;;;2.10;;
10335;SDS011;5213;53.548;9.930;2023-02-28T15:54:30;4.10;;;2.30;;
10335;SDS011;5213;53.548;9.930;2023-02-28T15:56:59;2.25;;;2.03;;
10335;SDS011;5213;53.548;9.930;2023-02-28T15:59:28;3.80;;;2.55;;
10335;SDS011;5213;53.548;9.930;2023-02-28T16:05:01;2.78;;;2.58;;
10335;SDS011;5213;53.548;9.930;2023-02-28T16:07:28;2.75;;;2.22;;
10335;SDS011;5213;53.548;9.930;2023-02-28T16:09:54;5.03;;;2.50;;
10335;SDS011;5213;53.548;9.930;2023-02-28T16:12:20;6.07;;;2.15;;
10335;SDS011;5213;53.548;9.930;2023-02-28T16:14:51;2.90;;;2.28;;
10335;SDS011;5213;53.548;9.930;2023-02-28T16:17:24;5.85;;;2.20;;
10335;SDS011;5213;53.548;9.930;2023-02-28T16:19:51;4.53;;;2.40;;
10335;SDS011;5213;53.548;9.930;2023-02-28T16:22:17;4.13;;;2.35;;
10335;SDS011;5213;53.548;9.930;2023-02-28T16:24:43;3.70;;;2.50;;
10335;SDS011;5213;53.548;9.930;2023-02-28T16:27:20;2.78;;;2.17;;
10335;SDS011;5213;53.548;9.930;2023-02-28T16:29:47;6.25;;;2.58;;
10335;SDS011;5213;53.548;9.930;2023-02-28T16:32:14;2.53;;;2.30;;
10335;SDS011;5213;53.548;9.930;2023-02-28T16:34:41;2.80;;;2.20;;
10335;SDS011;5213;53.548;9.930;2023-02-28T16:37:14;3.03;;;2.40;;
10335;SDS011;5213;53.548;9.930;2023-02-28T16:39:41;3.20;;;2.40;;
10335;SDS011;5213;53.548;9.930;2023-02-28T16:42:14;3.05;;;2.58;;
10335;SDS011;5213;53.548;9.930;2023-02-28T16:44:41;3.03;;;2.45;;
10335;SDS011;5213;53.548;9.930;2023-02-28T16:47:08;5.45;;;2.50;;
10335;SDS011;5213;53.548;9.930;2023-02-28T16:49:35;3.97;;;2.53;;
10335;SDS011;5213;53.548;9.930;2023-02-28T16:52:01;3.22;;;2.63;;
10335;SDS011;5213;53.548;9.930;2023-02-28T16:54:27;3.80;;;2.80;;
10335;SDS011;5213;53.548;9.930;2023-02-28T16:56:53;2.88;;;2.40;;
10335;SDS011;5213;53.548;9.930;2023-02-28T16:59:22;4.35;;;2.60;;
10335;SDS011;5213;53.548;9.930;2023-02-28T17:01:49;3.30;;;2.25;;
10335;SDS011;5213;53.548;9.930;2023-02-28T17:04:15;3.10;;;2.80;;
10335;SDS011;5213;53.548;9.930;2023-02-28T17:06:41;4.07;;;2.78;;
10335;SDS011;5213;53.548;9.930;2023-02-28T17:09:17;5.43;;;2.58;;
10335;SDS011;5213;53.548;9.930;2023-02-28T17:11:44;2.50;;;2.30;;
10335;SDS011;5213;53.548;9.930;2023-02-28T17:14:11;3.75;;;2.17;;
10335;SDS011;5213;53.548;9.930;2023-02-28T17:16:37;5.07;;;2.38;;
10335;SDS011;5213;53.548;9.930;2023-02-28T17:19:09;2.38;;;2.17;;
10335;SDS011;5213;53.548;9.930;2023-02-28T17:21:36;4.13;;;2.38;;